| Station | Date | Time | Temp (°F) | RH (%) | Dew Pt (°F) | Wind Spd (mph) | Wind Dir (°) | Wind Gust (mph) | Latest Rain (In) | Daily Rain (In) | Daily Max Temp (°F) | Daily Min Temp (°F) |
|---|---|---|---|---|---|---|---|---|---|---|---|---|
| Montesol | 8/30/26 | 1845 | 73.9 1.8 | - | - | - | - | - | 0.00 | 0.00 | 84.7 0.9 | 50.7 2.2 |
| Pope Valley (Weeks Lake) | 8/30/26 | 1845 | 82.5 0.7 | 34 1 | 51.3 1.1 | 3.6 0.5 | SW | 232 | 7.9 0.2 | 0.00 | 0.00 | 89.6 2.6 | 42.6 3.1 |
| Dollarhide Base | 8/30/26 | 1845 | 81.4 0.6 | 43 6 | 57.0 3.6 | 3.5 2.7 | SSE | 167 | 8.6 4.2 | 0.00 | 0.00 | 93.1 3.3 | 50.7 1.7 |
| Dollarhide 16A Remote | 8/30/26 | 1845 | 80.9 0.6 | 43 5 | 56.6 2.9 | - | - | - | - | - | 92.5 4.3 | 49.0 2.3 |
| Hardin Rd (Eakle) | 8/30/26 | 1845 | 79.2 2.0 | - | - | - | - | - | - | - | 90.9 2.2 | 46.5 1.9 |
| Angwin | 8/30/26 | 1845 | 72.0 0.0 | 45 1 | 49.5 0.9 | 1.4 1.4 | SE | 144 | 6.0 1.8 | 0.00 | 0.00 | 81.4 1.4 | 60.1 0.7 |
| Lower Angwin (Pioneer) | 8/30/26 | 1845 | 74.7 1.5 | - | - | 3.5 0.5 | WSW | 242 | 10.1 3.2 | - | - | 82.7 2.2 | 42.0 1.8 |
| Las Posadas (Cal Fire) | 8/30/26 | 1845 | 74.2 1.0 | 49 8 | 54.1 3.9 | 10.5 1.1 | SW | 214 | 15.6 1.5 | 0.00 | 0.00 | 84.4 1.7 | 48.2 0.8 |
| Lower Chiles Valley (Brown) | 8/30/26 | 1845 | 79.6 1.1 | 39 7 | 52.6 4.2 | 3.2 0.4 | E | 97 | 8.4 1.9 | 0.00 | 0.00 | 86.8 2.1 | 47.5 1.6 |
| Moss Creek Vineyard/Reservior | 8/30/26 | 1830 | 80.7 1.5 | 37 1 | 52.2 1.9 | - | - | - | 0.00 | 0.00 | 90.8 0.6 | 48.2 1.6 |
| Max | 82.5 | 49 | 57.0 | 10.5 | - | 15.6 | 0.00 | 0.00 | 93.1 | 60.1 | ||
| Avg | 77.9 | 42 | 53.3 | 4.3 | - | 9.4 | 0.00 | - | - | - | ||
| Min | 72.0 | 34 | 49.5 | 1.4 | - | 6.0 | 0.00 | 0.00 | 81.4 | 42.0 |
| Station | Date | Time | Temp (°F) | RH (%) | Dew Pt (°F) | Wind Spd (mph) | Wind Dir (°) | Wind Gust (mph) | Latest Rain (In) | Daily Rain (In) | Daily Max Temp (°F) | Daily Min Temp (°F) |
|---|---|---|---|---|---|---|---|---|---|---|---|---|
| Tenma (North Calistoga) | 8/30/26 | 1845 | 77.8 3.2 | - | - | - | - | - | 0.00 | 0.00 | 91.9 1.6 | 45.6 0.4 |
| Calistoga-Solari | 8/30/26 | 1845 | 79.3 3.5 | 38 4 | 51.3 0.3 | 4.1 0.8 | SW | 224 | 9.7 1.1 | 0.00 | 0.00 | 88.5 1.3 | 44.1 1.2 |
| Calistoga-North | 8/30/26 | 1845 | 79.1 4.0 | 42 5 | 53.9 0.5 | - | - | - | 0.00 | 0.00 | 92.5 2.2 | 46.2 0.9 |
| Twomey Calistoga | 8/30/26 | 1845 | 81.2 2.1 | 36 2 | 51.7 3.4 | 2.9 1.4 | NW | 317 | 7.6 3.5 | 0.00 | 0.00 | 93.2 2.1 | 40.8 0.1 |
| Paloma | 8/30/26 | 1845 | 81.0 2.1 | 39 0 | 54.1 2.2 | 3.5 1.1 | E | 85 | 7.5 1.2 | 0.00 | 0.00 | 91.4 0.6 | 42.4 0.2 |
| Calistoga (Ranch 78) | 8/30/26 | 1845 | 81.0 0.6 | 34 5 | 50.0 4.5 | 3.7 0.7 | WNW | 285 | 6.1 2.1 | 0.00 | 0.00 | 90.0 1.3 | 43.6 1.5 |
| Diamond Mtn (Schramsberg) | 8/30/26 | 1845 | 75.5 0.8 | 43 0 | 51.4 0.6 | - | - | - | 0.00 | 0.00 | 84.2 1.4 | 52.0 0.6 |
| Diamond Mtn (McEachran) | 8/30/26 | 1845 | 79.2 0.8 | 38 4 | 51.5 2.1 | - | - | - | - | - | 85.8 1.8 | 51.7 0.5 |
| Deer Park | 8/30/26 | 1845 | 75.8 0.5 | 46 4 | 53.7 2.0 | 5.5 0.9 | SSE | 151 | 8.6 3.1 | 0.00 | 0.00 | 85.1 1.1 | 52.8 0.1 |
| St. Helena-North | 8/30/26 | 1845 | 77.4 0.8 | 42 3 | 52.4 1.1 | 5.3 2.0 | SSE | 153 | 8.6 3.1 | 0.00 | 0.00 | 86.1 1.6 | 48.2 2.2 |
| St. Helena (NVV Office) | 8/30/26 | 1845 | 77.1 0.7 | - | - | 2.8 0.1 | SE | 124 | 7.8 1.0 | 0.00 | 0.00 | 84.5 1.3 | 49.1 1.0 |
| Tiara Fria (East St. Helena) | 8/30/26 | 1845 | 75.5 1.2 | 48 3 | 54.4 0.8 | 3.6 0.5 | SE | 143 | 9.7 0.5 | 0.00 | 0.00 | 83.2 0.9 | 46.8 0.3 |
| Prisoner Winery | 8/30/26 | 1845 | 76.6 0.5 | 45 0 | 53.7 0.2 | 2.8 1.0 | SE | 136 | 6.4 1.2 | 0.00 | 0.00 | 87.1 1.4 | 45.2 1.5 |
| Rutherford Hill Estate | 8/30/26 | 1845 | 76.6 0.8 | 46 4 | 54.0 2.1 | 1.7 1.3 | S | 175 | 7.5 5.3 | 0.00 | 0.00 | 84.2 0.9 | 51.2 2.0 |
| Rutherford-North (Mee Ln) | 8/30/26 | 1845 | 74.1 2.4 | 49 3 | 53.9 0.3 | 6.3 0.3 | SE | 144 | 12.3 0.9 | 0.00 | 0.00 | 82.4 1.6 | 42.8 0.9 |
| Rutherford (STS) | 8/30/26 | 1845 | 73.4 1.5 | 57 1 | 57.1 0.7 | 3.6 0.6 | SE | 126 | 9.6 0.1 | 0.00 | 0.00 | 84.2 1.8 | 43.2 1.5 |
| Silver Oak OV | 8/30/26 | 1845 | 72.9 2.4 | 52 3 | 54.0 0.6 | 8.7 0.2 | SE | 138 | 17.3 0.4 | 0.00 | 0.00 | 80.0 1.5 | 43.5 1.4 |
| Oakville-NE (Ranch 88) | 8/30/26 | 1845 | 74.6 1.9 | 45 2 | 52.0 0.3 | 5.1 1.1 | S | 181 | 11.2 4.6 | 0.00 | 0.00 | 82.4 1.6 | 43.3 1.1 |
| Crossroads Ranch | 8/30/26 | 1845 | 72.8 2.2 | 56 2 | 56.2 1.2 | 8.3 0.4 | SSE | 147 | 13.4 2.9 | 0.00 | 0.00 | 80.7 1.2 | 44.7 0.9 |
| Oakville | 8/30/26 | 1845 | 72.4 2.4 | 52 3 | 53.6 0.8 | 7.4 0.2 | SE | 138 | 16.0 0.6 | 0.00 | 0.00 | 79.3 1.8 | 43.9 1.0 |
| To Kalon Remote (TKKE) | 8/30/26 | 1845 | 74.2 1.8 | - | - | - | - | - | - | - | 83.3 1.2 | 45.0 1.2 |
| To Kalon | 8/30/26 | 1845 | 72.7 2.0 | 53 0 | 54.5 1.7 | 6.7 0.0 | SSE | 152 | 13.3 0.0 | 0.00 | 0.00 | 80.6 1.6 | 46.0 1.0 |
| To Kalon Remote (TKN5) | 8/30/26 | 1845 | 74.2 2.9 | - | - | - | - | - | - | - | 83.9 0.2 | 45.5 1.3 |
| Jump Rock | 8/30/26 | 1845 | 76.8 2.3 | 47 1 | 55.1 2.8 | 1.9 0.6 | W | 264 | 4.3 2.6 | 0.00 | 0.00 | 83.2 2.5 | 40.8 0.0 |
| State Lane Ranch | 8/30/26 | 1845 | 73.6 1.3 | 55 0 | 56.2 1.2 | 6.3 0.4 | S | 175 | 11.6 0.3 | 0.00 | 0.00 | 81.1 1.0 | 42.6 1.1 |
| Yountville (Ranch 67) | 8/30/26 | 1845 | 71.0 1.8 | 51 0 | 51.9 1.8 | 6.4 1.2 | SSE | 154 | 11.8 2.2 | 0.00 | 0.00 | 77.8 2.5 | 43.4 1.8 |
| Borreo (Soda Canyon) | 8/30/26 | 1845 | 70.3 1.1 | 53 0 | 52.2 1.2 | 2.1 0.4 | SSW | 192 | 5.4 1.4 | 0.00 | 0.00 | 78.2 0.1 | 46.2 0.7 |
| Wappo Hill Floor | 8/30/26 | 1845 | 72.2 1.4 | 53 0 | 54.4 1.2 | 4.7 1.4 | SE | 142 | 10.0 1.3 | 0.00 | 0.00 | 79.7 2.1 | 43.4 0.8 |
| Wappo Hill | 8/30/26 | 1845 | 70.3 1.9 | 57 1 | 54.1 1.3 | 8.1 1.3 | SE | 124 | 11.8 2.4 | 0.00 | 0.00 | 78.2 1.7 | 49.7 0.1 |
| Stags Leap Dist (Chimney Rock) | 8/30/26 | 1845 | 71.8 1.7 | 58 0 | 56.4 1.4 | 4.1 1.2 | SSE | 157 | 8.3 2.1 | 0.00 | 0.00 | 78.8 1.5 | 42.8 2.4 |
| Stags Leap Dist (Silverado Vineyards) | 8/30/26 | 1845 | 70.8 2.1 | 52 1 | 52.4 1.5 | 5.4 0.4 | S | 170 | 11.7 0.1 | 0.00 | 0.00 | 78.6 2.0 | 43.5 2.0 |
| Yountville-SE (Ranch 85) | 8/30/26 | 1845 | 71.2 1.7 | 58 1 | 55.5 1.1 | 4.8 1.3 | SSE | 164 | 9.4 1.0 | 0.00 | 0.00 | 77.6 2.0 | 45.2 0.9 |
| Yountville-South (Ranch 87) | 8/30/26 | 1845 | 72.8 1.4 | 54 1 | 55.4 1.0 | 2.7 0.7 | SE | 128 | 6.7 1.9 | 0.00 | 0.00 | 81.6 1.5 | 44.5 0.9 |
| Max | 81.2 | 58 | 57.1 | 8.7 | - | 17.3 | 0.00 | 0.00 | 93.2 | 52.8 | ||
| Avg | 75.0 | 48 | 53.7 | 4.8 | - | 9.8 | 0.00 | - | - | - | ||
| Min | 70.3 | 34 | 50.0 | 1.7 | - | 4.3 | 0.00 | 0.00 | 77.6 | 40.8 |
| Station | Date | Time | Temp (°F) | RH (%) | Dew Pt (°F) | Wind Spd (mph) | Wind Dir (°) | Wind Gust (mph) | Latest Rain (In) | Daily Rain (In) | Daily Max Temp (°F) | Daily Min Temp (°F) |
|---|---|---|---|---|---|---|---|---|---|---|---|---|
| Mt. Veeder | 8/30/26 | 1845 | 70.6 0.3 | 54 8 | 53.1 4.5 | 0.1 0.0 | W | 270 | 1.1 0.5 | 0.00 | 0.00 | 79.1 1.2 | 51.7 2.8 |
| Soda Canyon | 8/30/26 | 1845 | 71.0 2.0 | 63 2 | 57.7 1.2 | 5.0 0.5 | S | 182 | 7.7 2.6 | 0.00 | 0.00 | 77.9 0.6 | 44.6 1.2 |
| Big Ranch Rd | 8/30/26 | 1845 | 69.6 2.3 | - | - | - | - | - | - | - | 77.5 3.1 | 45.8 0.6 |
| Oak Knoll-East (Ranch 53) | 8/30/26 | 1845 | 71.1 1.1 | 55 2 | 53.9 1.9 | 3.6 1.4 | SE | 146 | 9.4 1.0 | 0.00 | 0.00 | 79.1 1.9 | 46.1 0.9 |
| Napa-NW (Ranch 54) | 8/30/26 | 1845 | 73.5 4.0 | 52 8 | 54.8 0.7 | 1.1 0.5 | ESE | 120 | 6.0 2.7 | 0.00 | 0.00 | 80.7 3.6 | 47.0 0.2 |
| Frisinger Napa-NW | 8/30/26 | 1845 | 70.5 3.5 | 62 7 | 56.8 0.1 | 4.8 0.3 | SE | 141 | 9.5 1.7 | 0.00 | 0.00 | 79.1 3.2 | 46.4 1.0 |
| Napa-North (Ranch 29) | 8/30/26 | 1845 | 70.5 1.7 | 59 4 | 55.4 0.1 | 3.6 0.8 | S | 186 | 8.4 1.9 | 0.00 | 0.00 | 76.9 0.8 | 46.7 0.0 |
| Mount George (Napa East) | 8/30/26 | 1845 | 70.2 1.6 | 55 3 | 53.3 0.1 | 1.9 0.4 | SW | 227 | 5.6 0.4 | 0.00 | 0.00 | 76.6 0.8 | 49.6 5.0 |
| Napa-East (Palmaz 300') | 8/30/26 | 1845 | 74.1 2.3 | 48 3 | 53.2 0.6 | 1.6 1.4 | SW | 234 | 6.2 1.2 | 0.00 | 0.00 | 81.6 0.9 | 51.9 4.4 |
| Napa-East (Palmaz 1200') | 7/4/26 | 0630 | 49.8 0.1 | 72 2 | 40.8 1.0 | 0.2 0.5 | E | 79 | 2.0 0.4 | - | - | 51.0 1.7 | 48.0 0.9 |
| Napa-East (Palmaz 1400') | 8/30/26 | 1845 | 68.7 0.3 | 57 0 | 52.9 0.1 | 2.8 0.4 | SW | 218 | 6.7 1.2 | 0.00 | 0.00 | 74.9 0.7 | 50.4 2.7 |
| Wooden Valley | 8/30/26 | 1845 | 73.2 0.2 | 45 2 | 50.7 1.3 | 3.7 1.4 | W | 270 | 9.4 1.1 | 0.00 | 0.00 | 81.0 0.3 | 54.1 4.3 |
| Napa-West Upper (Truchard) | 8/30/26 | 1845 | 69.9 2.6 | 61 6 | 55.7 0.2 | 7.0 0.5 | SSE | 158 | 11.4 0.4 | 0.00 | 0.00 | 78.8 2.3 | 51.4 1.3 |
| Napa-West Lower (Truchard) | 8/30/26 | 1845 | 69.7 3.0 | 61 6 | 55.6 0.1 | - | - | - | - | - | 78.5 2.0 | 42.5 0.8 |
| Sunset Rd | 8/30/26 | 1845 | 70.4 3.0 | 58 8 | 54.8 1.2 | 5.0 0.3 | SSE | 148 | 11.0 0.8 | 0.00 | 0.00 | 76.5 2.9 | 47.2 0.0 |
| Napa-South (Toyon Farms) | 8/30/26 | 1845 | 67.9 3.7 | 71 8 | 58.3 0.0 | 8.4 0.7 | S | 178 | 13.3 1.3 | 0.00 | 0.00 | 75.4 3.4 | 51.0 0.4 |
| Dealy Lane (Ranch 80) | 8/30/26 | 1845 | 69.1 4.0 | 60 8 | 54.4 0.2 | 3.7 1.4 | S | 169 | 8.9 2.2 | 0.00 | 0.00 | 75.9 4.3 | 48.5 1.1 |
| Carneros (Saintsbury) | 8/30/26 | 1845 | 67.2 3.5 | 67 8 | 56.0 0.4 | 6.9 0.3 | S | 178 | 11.5 0.3 | 0.00 | 0.00 | 74.6 3.5 | 46.1 2.8 |
| Suscol Lower (Ranch 35) | 8/30/26 | 1845 | 67.2 4.1 | 63 8 | 54.3 0.0 | 7.7 1.7 | S | 185 | 11.9 1.4 | 0.00 | 0.00 | 75.2 2.1 | 51.5 2.6 |
| Suscol Mtn (Ranch 93) | 8/30/26 | 1845 | 68.5 1.4 | 59 4 | 53.8 0.6 | 1.8 1.9 | SW | 230 | 5.5 5.0 | 0.00 | 0.00 | 78.8 0.2 | 53.7 1.3 |
| Suscol Upper (Ranch 92) | 8/30/26 | 1845 | 67.8 2.0 | 60 5 | 53.5 0.3 | 1.4 2.9 | S | 188 | 6.4 3.2 | 0.00 | 0.00 | 75.1 1.8 | 53.8 1.3 |
| Carneros (Mitsuko) | 8/30/26 | 1845 | 68.8 2.7 | - | - | - | - | - | - | - | 74.4 5.2 | 44.3 3.0 |
| Sugarloaf West | 8/30/26 | 1845 | 67.2 4.0 | 68 5 | 56.4 1.5 | 5.7 0.3 | SSE | 162 | 9.9 0.2 | 0.00 | 0.00 | 74.1 1.6 | 49.4 1.4 |
| Stanly (Ranch 45) | 8/30/26 | 1845 | 67.8 2.7 | 66 3 | 55.9 1.1 | 8.5 0.3 | SSW | 192 | 11.6 1.5 | 0.00 | 0.00 | 73.6 2.0 | 46.1 1.6 |
| Carneros (Las Amigas Rd) | 8/30/26 | 1845 | 66.8 3.5 | - | - | - | - | - | - | - | 72.1 5.3 | 46.8 1.2 |
| Carneros (Milton Rd) | 8/30/26 | 1830 | 68.3 2.8 | 64 1 | 55.5 2.2 | - | - | - | 0.00 | 0.00 | 74.2 1.4 | 46.4 2.4 |
| Carneros (Ranch 71) | 8/30/26 | 1845 | 68.5 1.9 | 60 2 | 54.0 0.6 | 3.9 0.5 | S | 191 | 7.8 2.5 | 0.00 | 0.00 | 74.3 4.7 | 53.4 2.4 |
| Carneros Upper (Ranch 81) | 8/30/26 | 1845 | 68.8 2.3 | 61 5 | 54.6 0.4 | 8.0 1.1 | SSW | 194 | 12.4 5.4 | - | - | 77.4 0.9 | 54.7 2.9 |
| Carneros Lower (Ranch 81) | 8/30/26 | 1845 | 66.8 2.8 | 69 7 | 56.2 0.4 | 3.9 0.2 | S | 180 | 10.1 0.1 | 0.00 | 0.00 | 76.7 3.2 | 47.7 0.9 |
| Toyon Remote 1 | 8/30/26 | 1845 | 67.1 3.3 | - | - | - | - | - | - | - | 75.7 3.1 | 46.0 0.3 |
| Toyon Remote 2 | 8/30/26 | 1845 | 68.3 3.6 | - | - | - | - | - | - | - | 75.7 2.1 | 46.0 1.7 |
| Toyon Remote 3 | 8/30/26 | 1845 | 67.4 3.2 | - | - | - | - | - | - | - | 76.8 3.5 | 45.9 1.9 |
| Max | 74.1 | 71 | 58.3 | 8.5 | - | 13.3 | 0.00 | 0.00 | 81.6 | 54.7 | ||
| Avg | 69.2 | 60 | 54.8 | 4.4 | - | 8.8 | 0.00 | - | - | - | ||
| Min | 66.8 | 45 | 50.7 | 0.1 | - | 1.1 | 0.00 | 0.00 | 72.1 | 42.5 |